createdAt,value
2019-05-21T00:01:08.257Z,9.50
2019-05-21T00:03:37.837Z,9.57
2019-05-21T00:06:12.539Z,9.50
2019-05-21T00:08:42.419Z,9.53
2019-05-21T00:11:12.034Z,8.30
2019-05-21T00:13:41.830Z,9.47
2019-05-21T00:16:11.636Z,10.83
2019-05-21T00:18:41.967Z,11.12
2019-05-21T00:21:11.540Z,10.50
2019-05-21T00:23:41.269Z,11.93
2019-05-21T00:26:10.882Z,12.63
2019-05-21T00:28:39.812Z,12.03
2019-05-21T00:31:46.203Z,12.37
2019-05-21T00:34:52.284Z,11.60
2019-05-21T00:37:58.830Z,10.90
2019-05-21T00:41:05.347Z,12.90
2019-05-21T00:43:50.187Z,12.80
2019-05-21T00:46:19.588Z,12.13
2019-05-21T00:48:49.038Z,11.93
2019-05-21T00:51:18.803Z,12.87
2019-05-21T00:53:48.607Z,12.57
2019-05-21T00:56:18.350Z,13.07
2019-05-21T00:58:47.958Z,13.17
2019-05-21T01:01:17.616Z,12.30
2019-05-21T01:03:47.130Z,12.00
2019-05-21T01:06:36.422Z,12.00
2019-05-21T01:09:06.399Z,11.40
2019-05-21T01:11:35.903Z,10.33
2019-05-21T01:14:06.807Z,10.07
2019-05-21T01:16:36.804Z,9.68
2019-05-21T01:19:06.697Z,8.73
2019-05-21T01:21:36.817Z,8.45
2019-05-21T01:24:06.609Z,7.10
2019-05-21T01:26:36.147Z,7.00
2019-05-21T01:29:05.840Z,6.33
2019-05-21T01:31:35.334Z,6.20
2019-05-21T01:34:04.775Z,5.93
2019-05-21T01:36:34.931Z,6.45
2019-05-21T01:39:05.847Z,6.23
2019-05-21T01:41:35.217Z,5.50
2019-05-21T01:44:04.781Z,6.30
2019-05-21T01:46:34.851Z,5.62
2019-05-21T01:49:04.851Z,6.33
2019-05-21T01:51:34.668Z,5.15
2019-05-21T01:54:04.370Z,5.70
2019-05-21T01:56:33.800Z,5.80
2019-05-21T01:59:04.302Z,5.73
2019-05-21T02:01:33.755Z,5.50
2019-05-21T02:04:03.259Z,5.20
2019-05-21T02:06:32.809Z,4.27
2019-05-21T02:09:02.509Z,4.47
2019-05-21T02:11:31.987Z,4.17
2019-05-21T02:14:01.693Z,3.70
2019-05-21T02:16:31.185Z,3.50
2019-05-21T02:19:00.730Z,2.90
2019-05-21T02:21:30.292Z,2.70
2019-05-21T02:23:59.794Z,2.83
2019-05-21T02:26:29.191Z,2.43
2019-05-21T02:28:58.686Z,1.70
2019-05-21T02:31:28.346Z,1.60
2019-05-21T02:33:58.056Z,1.57
2019-05-21T02:36:28.263Z,1.12
2019-05-21T02:38:57.732Z,1.40
2019-05-21T02:41:27.111Z,1.43
2019-05-21T02:43:56.800Z,1.40
2019-05-21T02:46:26.404Z,1.60
2019-05-21T02:48:55.920Z,1.63
2019-05-21T02:51:26.289Z,1.80
2019-05-21T02:53:55.750Z,1.60
2019-05-21T02:56:25.996Z,1.90
2019-05-21T02:58:55.855Z,2.10
2019-05-21T03:01:43.022Z,2.50
2019-05-21T03:04:12.416Z,2.27
2019-05-21T03:06:42.124Z,2.33
2019-05-21T03:09:31.226Z,2.30
2019-05-21T03:12:00.760Z,1.80
2019-05-21T03:14:30.167Z,1.80
2019-05-21T03:16:59.876Z,1.83
2019-05-21T03:19:29.353Z,1.43
2019-05-21T03:21:58.820Z,1.67
2019-05-21T03:24:28.336Z,1.60
2019-05-21T03:26:57.948Z,1.70
2019-05-21T03:29:28.001Z,1.93
2019-05-21T03:31:57.859Z,1.83
2019-05-21T03:34:27.469Z,1.63
2019-05-21T03:36:56.951Z,1.70
2019-05-21T03:39:26.340Z,1.90
2019-05-21T03:41:56.163Z,1.83
2019-05-21T03:44:26.123Z,1.50
2019-05-21T03:46:56.071Z,1.80
2019-05-21T03:49:25.991Z,1.87
2019-05-21T03:51:55.536Z,1.93
2019-05-21T03:54:44.439Z,2.10
2019-05-21T03:57:14.704Z,2.30
2019-05-21T03:59:44.295Z,2.00
2019-05-21T04:02:13.931Z,1.93
2019-05-21T04:04:43.554Z,1.80
2019-05-21T04:07:13.065Z,1.87
2019-05-21T04:09:42.843Z,2.00
2019-05-21T04:12:12.335Z,2.43
2019-05-21T04:14:49.642Z,2.17
2019-05-21T04:17:37.243Z,2.40
2019-05-21T04:20:07.188Z,2.30
2019-05-21T04:22:38.617Z,1.95
2019-05-21T04:25:07.991Z,2.20
2019-05-21T04:27:37.462Z,2.30
2019-05-21T04:30:11.088Z,2.30
2019-05-21T04:32:38.423Z,2.40
2019-05-21T04:35:07.934Z,2.53
2019-05-21T04:37:37.391Z,1.90
2019-05-21T04:40:06.923Z,2.63
2019-05-21T04:42:36.414Z,2.30
2019-05-21T04:45:07.589Z,2.40
2019-05-21T04:47:37.522Z,2.30
2019-05-21T04:50:07.031Z,2.50
2019-05-21T04:52:36.559Z,2.70
2019-05-21T04:55:06.130Z,2.63
2019-05-21T04:57:37.429Z,2.33
2019-05-21T05:00:07.095Z,2.43
2019-05-21T05:02:36.808Z,3.00
2019-05-21T05:05:06.497Z,2.30
2019-05-21T05:07:35.933Z,2.40
2019-05-21T05:10:06.449Z,2.47
2019-05-21T05:12:36.183Z,2.93
2019-05-21T05:15:06.458Z,3.07
2019-05-21T05:17:36.113Z,2.70
2019-05-21T05:20:05.928Z,2.80
2019-05-21T05:22:35.394Z,2.70
2019-05-21T05:25:06.827Z,2.20
2019-05-21T05:27:36.237Z,2.50
2019-05-21T05:30:07.973Z,2.50
2019-05-21T05:32:37.440Z,2.43
2019-05-21T05:35:07.237Z,2.47
2019-05-21T05:37:44.011Z,2.43
2019-05-21T05:40:08.272Z,2.60
2019-05-21T05:42:38.306Z,2.80
2019-05-21T05:45:08.052Z,2.33
2019-05-21T05:47:37.522Z,2.67
2019-05-21T05:50:09.285Z,2.53
2019-05-21T05:52:38.666Z,1.97
2019-05-21T05:55:08.094Z,2.53
2019-05-21T05:57:37.603Z,2.80
2019-05-21T06:00:07.479Z,2.70
2019-05-21T06:02:37.149Z,2.20
2019-05-21T06:05:07.386Z,2.30
2019-05-21T06:07:37.066Z,2.22
2019-05-21T06:10:06.599Z,2.47
2019-05-21T06:12:36.226Z,2.00
2019-05-21T06:15:07.171Z,2.70
2019-05-21T06:17:36.666Z,2.23
2019-05-21T06:20:07.682Z,2.43
2019-05-21T06:22:37.175Z,2.47
2019-05-21T06:25:06.980Z,2.67
2019-05-21T06:27:36.691Z,2.40
2019-05-21T06:30:07.279Z,2.50
2019-05-21T06:32:36.768Z,1.93
2019-05-21T06:35:06.291Z,2.00
2019-05-21T06:37:35.742Z,2.20
2019-05-21T06:40:05.275Z,2.13
2019-05-21T06:42:34.852Z,2.40
2019-05-21T06:45:05.776Z,1.80
2019-05-21T06:47:35.707Z,1.83
2019-05-21T06:50:05.588Z,2.00
2019-05-21T06:52:35.640Z,1.97
2019-05-21T06:55:05.715Z,1.70
2019-05-21T06:57:35.332Z,1.63
2019-05-21T07:00:07.123Z,1.33
2019-05-21T07:02:36.670Z,1.83
2019-05-21T07:05:07.832Z,1.20
2019-05-21T07:07:37.679Z,1.10
2019-05-21T07:10:07.680Z,1.27
2019-05-21T07:12:37.306Z,1.00
2019-05-21T07:15:06.886Z,1.00
2019-05-21T07:17:36.487Z,0.70
2019-05-21T07:20:08.861Z,0.70
2019-05-21T07:22:38.417Z,0.90
2019-05-21T07:25:08.170Z,0.73
2019-05-21T07:27:37.580Z,0.80
2019-05-21T07:30:08.451Z,0.60
2019-05-21T07:32:38.483Z,0.70
2019-05-21T07:35:08.509Z,0.57
2019-05-21T07:37:38.250Z,0.50
2019-05-21T07:40:07.911Z,0.50
2019-05-21T07:42:37.427Z,0.50
2019-05-21T07:45:07.107Z,0.57
2019-05-21T07:47:36.535Z,0.47
2019-05-21T07:50:06.299Z,0.60
2019-05-21T07:52:35.818Z,0.50
2019-05-21T07:55:05.907Z,0.50
2019-05-21T07:57:35.575Z,0.67
2019-05-21T08:00:06.081Z,0.50
2019-05-21T08:02:35.530Z,0.50
2019-05-21T08:05:05.842Z,0.30
2019-05-21T08:07:35.472Z,0.50
2019-05-21T08:10:08.140Z,0.60
2019-05-21T08:12:39.675Z,0.60
2019-05-21T08:15:08.821Z,0.60
2019-05-21T08:17:38.467Z,0.40
2019-05-21T08:20:10.779Z,0.53
2019-05-21T08:22:40.670Z,0.80
2019-05-21T08:25:14.345Z,0.53
2019-05-21T08:27:41.799Z,0.60
2019-05-21T08:30:11.745Z,0.53
2019-05-21T08:32:41.473Z,0.50
2019-05-21T08:35:11.145Z,0.50
2019-05-21T08:37:40.718Z,0.40
2019-05-21T08:40:10.324Z,0.50
2019-05-21T08:42:39.901Z,0.40
2019-05-21T08:45:09.390Z,0.40
2019-05-21T08:47:38.831Z,0.40
2019-05-21T08:50:08.455Z,0.73
2019-05-21T08:52:37.896Z,0.50
2019-05-21T08:55:07.947Z,0.57
2019-05-21T08:57:37.524Z,0.57
2019-05-21T09:00:08.080Z,0.67
2019-05-21T09:02:37.940Z,0.63
2019-05-21T09:05:07.473Z,0.70
2019-05-21T09:07:36.874Z,0.47
2019-05-21T09:10:10.279Z,0.60
2019-05-21T09:12:39.831Z,0.50
2019-05-21T09:15:10.348Z,0.60
2019-05-21T09:17:44.318Z,0.63
2019-05-21T09:20:13.688Z,0.60
2019-05-21T09:22:43.843Z,0.40
2019-05-21T09:25:13.835Z,0.60
2019-05-21T09:27:43.583Z,0.62
2019-05-21T09:30:14.664Z,0.83
2019-05-21T09:35:26.983Z,0.33
2019-05-21T09:37:56.473Z,0.40
2019-05-21T09:40:26.738Z,0.68
2019-05-21T09:42:56.122Z,0.50
2019-05-21T09:45:26.708Z,0.53
2019-05-21T09:47:56.411Z,0.93
2019-05-21T09:50:26.643Z,0.82
2019-05-21T09:52:56.177Z,0.40
2019-05-21T09:55:26.668Z,0.60
2019-05-21T09:57:57.758Z,0.77
2019-05-21T10:00:33.385Z,0.70
2019-05-21T10:03:04.683Z,0.50
2019-05-21T10:05:36.757Z,0.60
2019-05-21T10:08:05.493Z,0.30
2019-05-21T10:10:34.927Z,0.57
2019-05-21T10:13:04.580Z,0.50
2019-05-21T10:15:34.215Z,0.40
2019-05-21T10:18:03.715Z,0.50
2019-05-21T10:20:33.117Z,0.67
2019-05-21T10:23:02.601Z,0.50
2019-05-21T10:25:32.031Z,0.50
2019-05-21T10:28:01.580Z,0.50
2019-05-21T10:30:31.124Z,0.60
2019-05-21T10:33:00.691Z,0.60
2019-05-21T10:35:30.146Z,0.70
2019-05-21T10:37:59.625Z,0.50
2019-05-21T10:40:29.055Z,0.60
2019-05-21T10:42:58.561Z,0.60
2019-05-21T10:45:27.923Z,0.50
2019-05-21T10:47:57.584Z,0.70
2019-05-21T10:50:26.954Z,0.50
2019-05-21T10:52:56.641Z,0.50
2019-05-21T10:55:26.855Z,0.57
2019-05-21T10:57:56.510Z,0.70
2019-05-21T11:00:27.753Z,0.70
2019-05-21T11:03:10.974Z,0.77
2019-05-21T11:05:45.180Z,0.62
2019-05-21T11:08:23.966Z,0.60
2019-05-21T11:10:45.950Z,0.60
2019-05-21T11:13:15.421Z,0.60
2019-05-21T11:15:44.915Z,0.60
2019-05-21T11:18:14.307Z,0.70
2019-05-21T11:20:43.804Z,0.50
2019-05-21T11:23:13.266Z,0.50
2019-05-21T11:25:42.750Z,0.50
2019-05-21T11:28:12.169Z,0.50
2019-05-21T11:30:41.949Z,0.40
2019-05-21T11:33:11.675Z,0.53
2019-05-21T11:35:41.069Z,0.50
2019-05-21T11:38:10.691Z,0.50
2019-05-21T11:40:40.228Z,0.50
2019-05-21T11:43:09.826Z,0.97
2019-05-21T11:45:39.854Z,0.57
2019-05-21T11:48:09.223Z,0.73
2019-05-21T11:50:38.803Z,0.40
2019-05-21T11:53:08.231Z,0.60
2019-05-21T11:55:37.943Z,0.80
2019-05-21T11:58:07.750Z,0.80
2019-05-21T12:00:37.276Z,0.70
2019-05-21T12:03:06.948Z,0.93
2019-05-21T12:05:36.688Z,0.60
2019-05-21T12:08:06.115Z,0.60
2019-05-21T12:10:35.840Z,0.80
2019-05-21T12:13:05.275Z,0.80
2019-05-21T12:15:34.971Z,0.60
2019-05-21T12:18:04.679Z,0.80
2019-05-21T12:20:37.123Z,0.70
2019-05-21T12:23:05.284Z,0.60
2019-05-21T12:25:34.923Z,0.70
2019-05-21T12:28:04.517Z,0.70
2019-05-21T12:30:34.001Z,0.77
2019-05-21T12:33:03.753Z,1.03
2019-05-21T12:35:33.211Z,0.70
2019-05-21T12:38:02.792Z,0.83
2019-05-21T12:40:32.345Z,1.20
2019-05-21T12:43:01.787Z,0.77
2019-05-21T12:45:31.267Z,0.83
2019-05-21T12:48:00.816Z,0.80
2019-05-21T12:50:30.384Z,0.83
2019-05-21T12:52:59.824Z,1.03
2019-05-21T12:55:29.372Z,0.70
2019-05-21T12:57:58.917Z,0.77
2019-05-21T13:00:32.598Z,0.70
2019-05-21T13:03:01.977Z,1.00
2019-05-21T13:05:32.005Z,0.80
2019-05-21T13:08:01.733Z,0.90
2019-05-21T13:10:31.263Z,0.73
2019-05-21T13:13:01.015Z,0.90
2019-05-21T13:15:30.458Z,0.73
2019-05-21T13:17:59.856Z,1.00
2019-05-21T13:20:29.341Z,0.97
2019-05-21T13:22:58.968Z,1.00
2019-05-21T13:25:28.420Z,1.20
2019-05-21T13:27:57.956Z,1.20
2019-05-21T13:30:27.486Z,1.37
2019-05-21T13:32:56.918Z,1.00
2019-05-21T13:35:27.093Z,1.15
2019-05-21T13:37:56.791Z,0.90
2019-05-21T13:40:27.246Z,1.17
2019-05-21T13:42:56.943Z,1.00
2019-05-21T13:45:27.125Z,1.12
2019-05-21T13:47:56.914Z,2.20
2019-05-21T13:50:27.074Z,0.80
2019-05-21T13:52:56.948Z,0.97
2019-05-21T13:55:27.082Z,0.98
2019-05-21T13:57:56.593Z,1.63
2019-05-21T14:00:28.739Z,1.20
2019-05-21T14:02:58.313Z,1.03
2019-05-21T14:05:28.818Z,1.07
2019-05-21T14:07:58.364Z,1.20
2019-05-21T14:10:28.183Z,1.10
2019-05-21T14:12:57.859Z,1.20
2019-05-21T14:15:27.233Z,3.93
2019-05-21T14:17:56.968Z,1.27
2019-05-21T14:20:27.161Z,2.58
2019-05-21T14:22:56.949Z,1.20
2019-05-21T14:25:27.202Z,1.60
2019-05-21T14:27:56.639Z,1.30
2019-05-21T14:30:27.363Z,1.22
2019-05-21T14:32:56.959Z,1.30
2019-05-21T14:35:27.123Z,1.37
2019-05-21T14:37:56.510Z,1.40
2019-05-21T14:40:32.163Z,1.07
2019-05-21T14:43:00.368Z,1.13
2019-05-21T14:45:33.713Z,1.30
2019-05-21T14:48:00.563Z,1.10
2019-05-21T14:50:30.170Z,1.47
2019-05-21T14:52:59.564Z,1.30
2019-05-21T14:55:29.232Z,1.43
2019-05-21T14:57:59.172Z,1.30
2019-05-21T15:00:36.723Z,1.20
2019-05-21T15:03:06.241Z,1.50
2019-05-21T15:05:35.602Z,1.07
2019-05-21T15:08:05.379Z,0.87
2019-05-21T15:10:48.081Z,1.20
2019-05-21T15:13:06.742Z,1.10
2019-05-21T15:15:36.348Z,1.00
2019-05-21T15:18:06.109Z,1.37
2019-05-21T15:20:40.584Z,1.47
2019-05-21T15:23:10.131Z,1.00
2019-05-21T15:25:39.563Z,1.30
2019-05-21T15:28:09.211Z,0.90
2019-05-21T15:30:40.279Z,1.43
2019-05-21T15:33:09.946Z,1.00
2019-05-21T15:35:39.476Z,1.70
2019-05-21T15:38:09.018Z,1.40
2019-05-21T15:40:38.448Z,1.33
2019-05-21T15:43:08.020Z,1.20
2019-05-21T15:45:37.459Z,1.10
2019-05-21T15:48:07.107Z,1.50
2019-05-21T15:50:36.567Z,1.40
2019-05-21T15:53:06.067Z,1.07
2019-05-21T15:55:36.204Z,1.17
2019-05-21T15:58:06.073Z,1.10
2019-05-21T16:00:35.589Z,1.03
2019-05-21T16:03:05.167Z,1.60
2019-05-21T16:05:34.670Z,1.43
2019-05-21T16:08:04.065Z,1.20
2019-05-21T16:10:33.526Z,1.10
2019-05-21T16:13:03.112Z,0.93
2019-05-21T16:15:32.860Z,1.20
2019-05-21T16:18:02.328Z,1.30
2019-05-21T16:20:33.992Z,1.72
2019-05-21T16:23:03.621Z,1.10
2019-05-21T16:25:33.351Z,1.32
2019-05-21T16:28:04.797Z,1.70
2019-05-21T16:30:34.028Z,1.47
2019-05-21T16:33:03.504Z,1.33
2019-05-21T16:35:33.503Z,1.27
2019-05-21T16:38:03.243Z,1.00
2019-05-21T16:40:32.685Z,1.20
2019-05-21T16:43:11.390Z,1.67
2019-05-21T16:45:48.761Z,1.23
2019-05-21T16:48:17.349Z,1.07
2019-05-21T16:50:53.724Z,1.00
2019-05-21T16:53:23.314Z,1.50
2019-05-21T16:55:57.354Z,1.10
2019-05-21T16:58:30.123Z,1.70
2019-05-21T17:00:59.483Z,1.30
2019-05-21T17:03:29.275Z,1.37
2019-05-21T17:06:01.656Z,1.00
2019-05-21T17:08:31.375Z,1.50
2019-05-21T17:11:03.796Z,0.90
2019-05-21T17:13:33.271Z,1.20
2019-05-21T17:16:02.700Z,0.87
2019-05-21T17:18:32.303Z,1.27
2019-05-21T17:21:01.828Z,1.10
2019-05-21T17:23:31.307Z,1.03
2019-05-21T17:26:01.172Z,1.30
2019-05-21T17:28:30.696Z,0.90
2019-05-21T17:31:00.277Z,1.10
2019-05-21T17:33:29.711Z,0.90
2019-05-21T17:35:59.368Z,1.03
2019-05-21T17:38:29.367Z,0.80
2019-05-21T17:40:58.835Z,1.20
2019-05-21T17:43:28.470Z,1.20
2019-05-21T17:45:58.232Z,1.30
2019-05-21T17:48:27.665Z,1.50
2019-05-21T17:50:57.342Z,1.20
2019-05-21T17:53:27.528Z,1.30
2019-05-21T17:55:57.196Z,1.20
2019-05-21T17:58:27.484Z,1.35
2019-05-21T18:01:01.828Z,0.90
2019-05-21T18:03:32.022Z,1.20
2019-05-21T18:06:02.376Z,1.20
2019-05-21T18:08:32.320Z,1.10
2019-05-21T18:11:02.873Z,0.87
2019-05-21T18:13:33.318Z,1.30
2019-05-21T18:16:03.573Z,1.13
2019-05-21T18:18:33.558Z,1.32
2019-05-21T18:21:02.948Z,1.20
2019-05-21T18:23:32.494Z,1.10
2019-05-21T18:26:01.943Z,1.00
2019-05-21T18:28:32.167Z,1.00
2019-05-21T18:31:02.051Z,1.20
2019-05-21T18:33:31.544Z,1.40
2019-05-21T18:36:01.317Z,1.30
2019-05-21T18:38:30.871Z,1.20
2019-05-21T18:41:00.406Z,1.27
2019-05-21T18:43:29.778Z,1.40
2019-05-21T18:45:59.442Z,1.07
2019-05-21T18:48:28.841Z,1.57
2019-05-21T18:50:58.485Z,1.53
2019-05-21T18:53:27.882Z,1.37
2019-05-21T18:55:57.480Z,1.80
2019-05-21T18:58:27.756Z,1.12
2019-05-21T19:00:57.271Z,1.50
2019-05-21T19:03:27.608Z,1.20
2019-05-21T19:05:57.021Z,1.60
2019-05-21T19:08:27.613Z,1.80
2019-05-21T19:10:57.400Z,1.70
2019-05-21T19:13:27.623Z,1.40
2019-05-21T19:15:57.352Z,1.50
2019-05-21T19:18:27.558Z,1.77
2019-05-21T19:21:04.566Z,1.30
2019-05-21T19:23:34.390Z,1.75
2019-05-21T19:26:04.070Z,1.77
2019-05-21T19:28:33.508Z,1.67
2019-05-21T19:31:03.014Z,1.80
2019-05-21T19:33:32.581Z,2.10
2019-05-21T19:36:02.110Z,1.73
2019-05-21T19:38:31.737Z,1.77
2019-05-21T19:41:01.471Z,1.50
2019-05-21T19:43:31.448Z,1.60
2019-05-21T19:46:01.368Z,1.70
2019-05-21T19:48:31.343Z,1.17
2019-05-21T19:51:00.848Z,1.77
2019-05-21T19:53:30.500Z,1.70
2019-05-21T19:55:59.960Z,1.93
2019-05-21T19:58:29.631Z,1.77
2019-05-21T20:00:59.340Z,1.67
2019-05-21T20:03:28.874Z,1.67
2019-05-21T20:05:58.598Z,1.57
2019-05-21T20:08:28.531Z,1.70
2019-05-21T20:10:58.262Z,1.87
2019-05-21T20:13:32.720Z,2.13
2019-05-21T20:15:59.472Z,2.00
2019-05-21T20:18:28.910Z,2.20
2019-05-21T20:20:59.037Z,2.13
2019-05-21T20:23:28.827Z,2.30
2019-05-21T20:25:58.418Z,2.67
2019-05-21T20:28:28.342Z,2.40
2019-05-21T20:30:57.791Z,3.13
2019-05-21T20:33:28.349Z,2.67
2019-05-21T20:35:58.122Z,2.83
2019-05-21T20:38:28.829Z,2.80
2019-05-21T20:40:59.561Z,3.50
2019-05-21T20:43:29.398Z,3.27
2019-05-21T20:45:59.826Z,3.30
2019-05-21T20:48:34.018Z,3.80
2019-05-21T20:51:04.696Z,3.13
2019-05-21T20:53:34.786Z,3.33
2019-05-21T20:56:04.593Z,3.43
2019-05-21T20:58:34.874Z,3.55
2019-05-21T21:01:05.795Z,3.43
2019-05-21T21:03:36.755Z,3.40
2019-05-21T21:06:07.443Z,3.40
2019-05-21T21:08:37.933Z,3.67
2019-05-21T21:11:09.225Z,3.20
2019-05-21T21:13:40.026Z,2.60
2019-05-21T21:16:10.339Z,2.90
2019-05-21T21:18:40.427Z,2.73
2019-05-21T21:21:09.874Z,2.80
2019-05-21T21:23:40.491Z,2.55
2019-05-21T21:26:10.366Z,2.60
2019-05-21T21:28:40.427Z,2.40
2019-05-21T21:31:10.312Z,2.07
2019-05-21T21:33:39.759Z,2.53
2019-05-21T21:36:09.242Z,2.30
2019-05-21T21:38:38.855Z,2.00
2019-05-21T21:41:08.712Z,1.80
2019-05-21T21:43:38.114Z,1.90
2019-05-21T21:46:07.646Z,2.00
2019-05-21T21:48:37.376Z,1.90
2019-05-21T21:51:08.066Z,1.80
2019-05-21T21:53:38.701Z,2.10
2019-05-21T21:56:08.184Z,1.63
2019-05-21T21:58:37.763Z,2.20
2019-05-21T22:01:27.212Z,2.20
2019-05-21T22:03:57.097Z,2.13
2019-05-21T22:06:28.743Z,1.90
2019-05-21T22:08:58.477Z,2.23
2019-05-21T22:11:28.091Z,1.50
2019-05-21T22:13:57.925Z,1.80
2019-05-21T22:16:27.921Z,1.83
2019-05-21T22:18:57.701Z,1.97
2019-05-21T22:21:33.704Z,1.70
2019-05-21T22:24:03.296Z,1.90
2019-05-21T22:26:34.748Z,2.23
2019-05-21T22:29:07.018Z,1.67
2019-05-21T22:31:37.364Z,2.17
2019-05-21T22:34:06.970Z,1.83
2019-05-21T22:36:36.747Z,1.80
2019-05-21T22:39:09.736Z,1.90
2019-05-21T22:41:39.261Z,1.47
2019-05-21T22:44:08.742Z,1.60
2019-05-21T22:46:40.191Z,1.82
2019-05-21T22:49:10.220Z,1.40
2019-05-21T22:51:39.876Z,1.77
2019-05-21T22:54:09.716Z,2.00
2019-05-21T22:56:39.217Z,1.63
2019-05-21T22:59:08.771Z,1.80
2019-05-21T23:01:38.418Z,1.90
2019-05-21T23:04:08.114Z,1.77
2019-05-21T23:06:37.813Z,1.50
2019-05-21T23:09:07.260Z,1.53
2019-05-21T23:11:37.125Z,1.60
2019-05-21T23:14:06.663Z,1.60
2019-05-21T23:16:36.271Z,2.40
2019-05-21T23:19:06.747Z,1.73
2019-05-21T23:21:36.209Z,1.90
2019-05-21T23:24:07.396Z,1.70
2019-05-21T23:26:37.668Z,1.70
2019-05-21T23:29:07.128Z,2.10
2019-05-21T23:31:36.819Z,1.67
2019-05-21T23:34:06.343Z,1.50
2019-05-21T23:36:36.185Z,1.77
2019-05-21T23:39:07.922Z,2.10
2019-05-21T23:41:37.862Z,1.80
2019-05-21T23:44:08.190Z,1.80
2019-05-21T23:46:38.305Z,2.00
2019-05-21T23:49:07.759Z,2.00
2019-05-21T23:51:37.318Z,2.70
2019-05-21T23:54:07.116Z,2.00
2019-05-21T23:56:37.122Z,1.97
2019-05-21T23:59:06.915Z,2.23
